Time;durP1;ratioP1;P1;durP2;ratioP2;P2;SDS_P1;SDS_P2;PMS_P1;PMS_P2;Temp;Humidity;BMP_temperature;BMP_pressure;BME280_temperature;BME280_humidity;BME280_pressure;Samples;Min_cycle;Max_cycle;Signal;HPM_P1;HPM_P2
2022/10/18 00:02:02;;;;;;;10.70;6.77;;;17.30;99.90;;;17.66;89.46;102441.44;4897386;29;20426;-70
2022/10/18 00:04:30;;;;;;;10.13;6.55;;;17.20;99.90;;;17.53;89.36;102426.41;4897553;29;20341;-70
2022/10/18 00:06:59;;;;;;;13.27;7.10;;;17.20;99.90;;;17.68;89.58;102440.53;4897517;29;20528;-70
2022/10/18 00:09:27;;;;;;;12.13;7.15;;;17.30;99.90;;;17.72;89.62;102446.75;4896411;29;20044;-70
2022/10/18 00:11:56;;;;;;;12.85;6.63;;;17.30;99.90;;;17.71;89.57;102445.00;4897904;29;20127;-70
2022/10/18 00:14:25;;;;;;;13.75;7.38;;;17.30;99.90;;;17.69;89.64;102442.31;4896236;29;20510;-70
2022/10/18 00:16:54;;;;;;;14.05;6.75;;;17.30;99.90;;;17.71;90.19;102448.53;4897740;29;20049;-70
2022/10/18 00:19:23;;;;;;;13.18;7.10;;;17.30;99.90;;;17.75;91.06;102447.59;4897373;29;20045;-70
2022/10/18 00:21:55;;;;;;;14.23;7.10;;;17.30;99.90;;;17.77;91.12;102455.63;4898335;29;20044;-70
2022/10/18 00:24:24;;;;;;;12.77;7.28;;;17.30;99.90;;;17.57;90.74;102429.03;4901018;29;20048;-70
2022/10/18 00:26:52;;;;;;;12.70;6.55;;;17.30;99.90;;;17.74;90.90;102439.59;4901207;29;20048;-70
2022/10/18 00:29:20;;;;;;;12.80;6.47;;;17.30;99.90;;;17.78;91.15;102447.59;4899924;29;20095;-70
2022/10/18 00:31:48;;;;;;;9.70;6.88;;;17.30;99.90;;;17.73;91.16;102443.19;4900998;29;20052;-70
2022/10/18 00:34:18;;;;;;;13.85;6.82;;;17.30;99.90;;;17.69;91.12;102446.78;4900812;29;20052;-70
2022/10/18 00:36:46;;;;;;;9.63;6.72;;;17.30;99.90;;;17.65;90.84;102451.25;4900014;29;20413;-70
2022/10/18 00:39:20;;;;;;;14.35;7.40;;;17.30;99.90;;;17.64;90.80;102459.31;4901100;29;20390;-70
2022/10/18 00:41:49;;;;;;;7.82;4.55;;;17.20;99.90;;;17.06;85.41;102464.13;4900703;29;20127;-70
2022/10/18 00:45:07;;;;;;;27.88;4.55;;;16.80;99.90;;;16.19;88.27;102460.88;4900650;29;20045;-70
2022/10/18 00:47:36;;;;;;;4.78;4.30;;;15.90;99.90;;;16.19;90.47;102460.88;4900847;29;20417;-70
2022/10/18 00:50:08;;;;;;;6.00;5.50;;;15.70;99.90;;;16.30;92.45;102457.28;4900629;29;20052;-70
2022/10/18 00:52:42;;;;;;;7.00;5.32;;;15.80;99.90;;;16.45;92.98;102455.47;4900571;29;20060;-70
2022/10/18 00:55:11;;;;;;;5.15;4.75;;;16.00;99.90;;;16.44;91.91;102466.13;4900490;29;20471;-72
2022/10/18 00:57:42;;;;;;;6.57;5.60;;;16.00;99.90;;;16.45;91.21;102462.59;4900629;29;20060;-69
2022/10/18 01:00:12;;;;;;;7.05;5.68;;;16.00;99.90;;;16.43;91.37;102459.94;4900402;29;20079;-70
2022/10/18 01:02:43;;;;;;;6.82;6.13;;;16.10;99.90;;;16.46;91.19;102459.00;4900419;29;20040;-70
2022/10/18 01:05:16;;;;;;;4.13;3.80;;;16.10;99.90;;;16.45;91.63;102463.47;4900499;29;20066;-70
2022/10/18 01:08:14;;;;;;;27.75;4.40;;;16.10;99.90;;;16.45;91.47;102459.91;4900278;29;20045;-70
2022/10/18 01:10:54;;;;;;;4.75;3.80;;;16.10;99.90;;;16.36;91.14;102468.81;4900358;29;20049;-70
2022/10/18 01:13:41;;;;;;;3.90;3.60;;;16.10;99.90;;;16.30;90.75;102479.53;4900328;29;20051;-71
2022/10/18 01:16:20;;;;;;;5.20;3.85;;;16.00;99.90;;;16.22;90.08;102467.97;4900159;29;20147;-70
2022/10/18 01:18:54;;;;;;;4.22;3.92;;;15.90;99.90;;;16.11;89.66;102478.69;4900088;29;20044;-70
2022/10/18 01:21:38;;;;;;;4.55;3.65;;;15.70;99.90;;;15.85;89.92;102452.91;4900282;29;20049;-70
2022/10/18 01:25:02;;;;;;;3.15;2.85;;;15.60;99.90;;;15.98;90.01;102466.25;4900331;29;20059;-70
2022/10/18 01:27:50;;;;;;;4.18;3.88;;;15.60;99.90;;;16.04;91.06;102470.69;4860746;29;20069;-70
2022/10/18 01:30:54;;;;;;;5.75;5.18;;;15.60;99.90;;;16.17;91.16;102472.44;4898110;29;20139;-70
2022/10/18 01:33:35;;;;;;;11.38;4.90;;;15.70;99.90;;;16.22;91.98;102473.31;4899598;29;20059;-70
2022/10/18 01:36:11;;;;;;;5.00;4.50;;;15.80;99.90;;;16.27;91.91;102469.75;4900077;29;20505;-70
2022/10/18 01:38:41;;;;;;;5.10;4.70;;;15.90;99.90;;;16.31;91.55;102470.63;4900124;29;20131;-70
2022/10/18 01:41:10;;;;;;;4.38;4.05;;;16.00;99.90;;;16.34;91.45;102467.06;4899580;29;20052;-70
2022/10/18 01:43:45;;;;;;;5.05;4.43;;;16.00;99.90;;;16.32;91.45;102463.53;4899692;29;20053;-70
2022/10/18 01:46:21;;;;;;;3.65;3.45;;;16.00;99.90;;;16.38;91.24;102475.06;4899645;29;20048;-70
2022/10/18 01:48:51;;;;;;;3.95;3.50;;;16.00;99.90;;;16.19;90.85;102454.63;4899661;29;20136;-70
2022/10/18 01:51:23;;;;;;;15.25;4.47;;;16.00;99.90;;;16.11;90.72;102465.31;4899677;29;20617;-70
2022/10/18 01:53:51;;;;;;;8.20;4.45;;;15.80;99.90;;;16.15;90.48;102477.78;4898238;29;20495;-70
2022/10/18 01:56:37;;;;;;;3.97;3.53;;;15.80;99.90;;;16.04;90.11;102476.03;4899826;29;20210;-70
2022/10/18 01:59:28;;;;;;;3.58;3.33;;;15.70;99.90;;;16.04;89.59;102478.69;4899699;29;20132;-70
2022/10/18 02:02:07;;;;;;;6.43;4.03;;;15.70;99.90;;;15.97;89.84;102482.22;4899419;29;20055;-70
2022/10/18 02:04:45;;;;;;;4.00;3.70;;;15.60;99.90;;;15.97;90.16;102480.47;4899541;29;20469;-70
2022/10/18 02:07:24;;;;;;;4.38;4.03;;;15.60;99.90;;;15.79;90.23;102447.56;4899295;29;20044;-70
2022/10/18 02:10:02;;;;;;;4.75;4.35;;;15.60;99.90;;;15.97;90.32;102477.78;4899178;29;20040;-71
2022/10/18 02:12:33;;;;;;;12.85;4.88;;;15.60;99.90;;;15.80;90.10;102450.22;4899132;29;20052;-70
2022/10/18 02:15:04;;;;;;;4.97;4.47;;;15.50;99.90;;;15.95;90.26;102476.03;4899148;29;20508;-70
2022/10/18 02:17:34;;;;;;;6.05;5.47;;;15.60;99.90;;;15.94;90.18;102475.13;4899145;29;20127;-70
2022/10/18 02:20:03;;;;;;;5.15;4.65;;;15.50;99.90;;;15.95;90.16;102484.03;4897815;29;20144;-70
2022/10/18 02:22:33;;;;;;;5.60;5.10;;;15.60;99.90;;;15.12;89.64;102343.50;4898881;29;20508;-70
2022/10/18 02:25:09;;;;;;;5.65;4.85;;;15.60;99.90;;;15.91;89.35;102495.63;4898971;29;20075;-70
2022/10/18 02:27:38;;;;;;;4.28;3.88;;;15.50;99.90;;;15.86;88.75;102486.69;4898811;29;20059;-70
2022/10/18 02:30:08;;;;;;;4.07;3.72;;;15.50;99.90;;;15.64;87.96;102469.78;4898774;29;20049;-70
2022/10/18 02:32:41;;;;;;;3.47;3.28;;;15.40;99.90;;;15.67;87.55;102484.91;4898827;29;20091;-70
2022/10/18 02:35:18;;;;;;;3.83;3.53;;;15.30;99.90;;;15.66;87.55;102481.34;4898740;29;20044;-69
2022/10/18 02:37:49;;;;;;;3.70;3.40;;;15.30;99.90;;;15.49;87.16;102459.13;4898695;29;20491;-70
2022/10/18 02:40:17;;;;;;;;;;;15.30;99.90;;;15.59;87.16;102492.03;4899190;29;20131;-70
2022/10/18 02:42:49;;;;;;;4.55;4.13;;;15.30;99.90;;;15.51;87.37;102475.13;4898481;29;19924;-70
2022/10/18 02:45:18;;;;;;;4.95;4.05;;;15.20;99.90;;;15.59;87.75;102489.34;4898126;29;20406;-71
2022/10/18 02:47:47;;;;;;;4.10;3.70;;;15.20;99.90;;;15.61;87.34;102484.91;4898633;29;20097;-70
2022/10/18 02:50:16;;;;;;;3.50;3.20;;;15.20;99.90;;;15.54;87.02;102477.81;4898947;29;20083;-70
2022/10/18 02:52:44;;;;;;;3.58;3.33;;;15.20;99.90;;;15.50;86.59;102479.59;4898240;29;20056;-70
2022/10/18 02:55:13;;;;;;;3.83;3.42;;;15.10;99.90;;;15.39;86.37;102476.84;4898404;29;20140;-69
2022/10/18 02:57:42;;;;;;;4.15;3.15;;;15.00;99.90;;;15.34;86.27;102485.72;4898210;29;20051;-70
2022/10/18 03:00:12;;;;;;;4.43;4.03;;;14.90;99.90;;;15.37;86.75;102488.38;4898195;29;20131;-69
2022/10/18 03:02:40;;;;;;;7.22;4.20;;;15.00;99.90;;;15.29;87.37;102476.84;4898369;29;20071;-70
2022/10/18 03:05:10;;;;;;;4.90;4.20;;;14.90;99.90;;;15.33;87.06;102483.94;4898395;29;20048;-69
2022/10/18 03:07:38;;;;;;;17.17;4.87;;;14.90;99.90;;;15.35;86.84;102475.06;4897006;29;20498;-70
2022/10/18 03:10:08;;;;;;;29.95;5.57;;;15.00;99.90;;;15.18;86.89;102475.91;4898175;29;20053;-70
2022/10/18 03:12:36;;;;;;;4.13;3.77;;;14.90;99.90;;;15.36;86.96;102487.53;4897074;29;20499;-70
2022/10/18 03:15:06;;;;;;;4.00;3.70;;;15.00;99.90;;;15.42;86.30;102486.69;4898138;29;20293;-69
2022/10/18 03:17:34;;;;;;;3.92;3.53;;;15.00;99.90;;;15.39;86.67;102490.19;4898226;29;20653;-70
2022/10/18 03:20:03;;;;;;;3.72;3.42;;;15.00;99.90;;;15.38;86.77;102487.53;4896738;29;20498;-70
2022/10/18 03:22:32;;;;;;;3.83;3.38;;;15.00;99.90;;;15.17;86.63;102471.47;4896714;29;20066;-70
2022/10/18 03:25:01;;;;;;;3.60;3.30;;;15.00;99.90;;;15.23;86.10;102490.16;4896696;29;20135;-72
2022/10/18 03:27:29;;;;;;;3.45;3.13;;;14.90;99.90;;;15.09;86.37;102498.13;4897787;29;20037;-72
2022/10/18 03:29:59;;;;;;;3.40;3.10;;;14.80;99.90;;;15.06;86.48;102497.22;4897843;29;20148;-72
2022/10/18 03:32:28;;;;;;;3.45;3.17;;;14.70;99.90;;;15.12;86.39;102492.78;4897940;29;20084;-72
2022/10/18 03:34:56;;;;;;;3.95;3.65;;;14.80;99.90;;;15.16;87.16;102491.00;4898106;29;20092;-72
2022/10/18 03:37:25;;;;;;;4.07;3.63;;;14.80;99.90;;;15.20;87.69;102485.69;4897769;29;20083;-72
2022/10/18 03:39:54;;;;;;;5.13;3.78;;;14.90;99.90;;;15.16;87.70;102481.25;4897631;29;20068;-72
2022/10/18 03:42:23;;;;;;;3.95;3.58;;;14.80;99.90;;;15.15;87.07;102487.47;4897805;29;20064;-71
2022/10/18 03:44:51;;;;;;;3.80;3.50;;;14.80;99.90;;;15.14;86.91;102493.69;4897625;29;20053;-72
2022/10/18 03:47:19;;;;;;;4.30;3.35;;;14.80;99.90;;;15.06;86.45;102494.56;4896430;29;20119;-72
2022/10/18 03:49:48;;;;;;;5.72;3.40;;;14.70;99.90;;;15.03;86.83;102510.53;4897708;29;20076;-72
2022/10/18 03:52:21;;;;;;;4.07;3.70;;;14.70;99.90;;;15.00;86.85;102500.72;4897395;29;20057;-72
2022/10/18 03:54:50;;;;;;;4.82;4.35;;;14.60;99.90;;;15.01;87.35;102507.84;4897551;29;20049;-72
2022/10/18 03:57:19;;;;;;;4.60;3.78;;;14.70;99.90;;;15.04;86.98;102496.31;4901009;29;20045;-72
2022/10/18 03:59:48;;;;;;;6.93;3.78;;;14.70;99.90;;;15.04;87.03;102489.19;4900508;29;20570;-72
2022/10/18 04:02:16;;;;;;;3.72;3.13;;;14.70;99.90;;;15.00;86.80;102492.75;4900278;29;20049;-72
2022/10/18 04:04:45;;;;;;;3.42;2.80;;;14.60;99.90;;;14.99;86.46;102492.75;4900220;29;20059;-72
2022/10/18 04:07:13;;;;;;;3.50;3.20;;;14.60;99.90;;;14.97;86.15;102490.06;4901608;29;20048;-72
2022/10/18 04:09:41;;;;;;;5.13;3.72;;;14.60;99.90;;;14.92;86.03;102486.50;4900276;29;20578;-72
2022/10/18 04:12:10;;;;;;;5.28;4.18;;;14.60;99.90;;;14.90;86.26;102490.94;4901566;29;20418;-72
2022/10/18 04:14:40;;;;;;;4.32;3.85;;;14.50;99.90;;;14.88;86.29;102490.06;4901849;29;20068;-71
2022/10/18 04:17:08;;;;;;;4.38;3.95;;;14.50;99.90;;;14.89;86.10;102486.50;4901268;29;20533;-72
2022/10/18 04:19:36;;;;;;;4.50;3.90;;;14.50;99.90;;;14.87;86.37;102488.25;4901077;29;20056;-71
2022/10/18 04:22:05;;;;;;;5.47;4.15;;;14.50;99.90;;;14.87;86.35;102482.94;4901031;29;20409;-72
2022/10/18 04:24:33;;;;;;;7.03;3.85;;;14.50;99.90;;;14.85;86.37;102484.69;4901093;29;20436;-72
2022/10/18 04:27:01;;;;;;;5.22;3.97;;;14.50;99.90;;;14.89;86.38;102488.25;4901457;29;20064;-72
2022/10/18 04:29:30;;;;;;;5.85;4.13;;;14.50;99.90;;;14.97;86.07;102494.50;4901314;29;20040;-72
2022/10/18 04:32:00;;;;;;;6.75;4.45;;;14.60;99.90;;;15.09;86.76;102500.78;4900988;29;20055;-72
2022/10/18 04:34:28;;;;;;;7.13;4.43;;;14.70;99.90;;;14.57;87.03;102405.56;4900956;29;20414;-71
2022/10/18 04:36:56;;;;;;;7.50;4.82;;;14.80;99.90;;;15.16;86.67;102507.91;4899593;29;20044;-72
2022/10/18 04:39:25;;;;;;;5.20;3.92;;;14.80;99.90;;;15.19;86.70;102507.03;4900798;29;20131;-72
2022/10/18 04:41:53;;;;;;;6.95;4.50;;;14.80;99.90;;;15.21;87.00;102499.94;4900781;29;20055;-72
2022/10/18 04:44:22;;;;;;;8.73;4.97;;;14.90;99.90;;;15.14;86.49;102515.00;4899610;29;20053;-72
2022/10/18 04:46:50;;;;;;;6.93;4.97;;;14.90;99.90;;;15.14;86.42;102515.00;4900710;29;20048;-73
2022/10/18 04:49:20;;;;;;;10.88;5.35;;;14.80;99.90;;;14.95;85.75;102475.84;4900829;29;20132;-72
2022/10/18 04:51:48;;;;;;;7.43;4.95;;;14.80;99.90;;;15.04;85.95;102510.53;4900518;29;20044;-71
2022/10/18 04:54:16;;;;;;;5.40;4.90;;;14.70;99.90;;;15.08;87.08;102509.66;4900674;29;20049;-72
2022/10/18 04:56:45;;;;;;;4.97;4.55;;;14.80;99.90;;;15.11;87.83;102524.78;4900523;29;20048;-71
2022/10/18 04:59:13;;;;;;;5.78;5.10;;;14.80;99.90;;;15.10;87.61;102521.22;4900460;29;20439;-72
2022/10/18 05:01:41;;;;;;;7.10;5.20;;;14.80;99.90;;;15.14;87.73;102524.78;4900931;29;20068;-71
2022/10/18 05:04:10;;;;;;;8.35;5.97;;;14.80;99.90;;;15.13;87.69;102515.00;4900207;29;20482;-72
2022/10/18 05:06:40;;;;;;;9.23;5.72;;;14.80;99.90;;;15.12;87.94;102522.09;4900364;29;20040;-72
2022/10/18 05:09:08;;;;;;;7.03;5.37;;;14.80;99.90;;;15.01;87.82;102522.94;4899590;29;20561;-72
2022/10/18 05:11:36;;;;;;;7.30;5.75;;;14.70;99.90;;;14.97;87.90;102530.06;4900320;29;20075;-71
2022/10/18 05:14:05;;;;;;;14.23;5.75;;;14.60;99.90;;;14.90;87.60;102533.59;4900109;29;20055;-71
2022/10/18 05:16:33;;;;;;;8.27;5.72;;;14.60;99.90;;;14.90;87.54;102528.25;4899040;29;20566;-69
2022/10/18 05:19:01;;;;;;;8.50;5.00;;;14.50;99.90;;;14.81;87.68;102522.84;4900576;29;20056;-69
2022/10/18 05:21:30;;;;;;;6.68;4.95;;;14.50;99.90;;;14.83;87.20;102538.84;4900014;29;20048;-72
2022/10/18 05:24:00;;;;;;;8.48;4.78;;;14.50;99.90;;;14.76;86.80;102543.28;4900012;29;20072;-69
2022/10/18 05:26:28;;;;;;;4.67;4.07;;;14.40;99.90;;;14.71;86.70;102537.00;4900018;29;20052;-70
2022/10/18 05:28:56;;;;;;;5.45;3.60;;;14.40;99.90;;;14.70;86.19;102531.69;4899989;29;20041;-69
2022/10/18 05:31:25;;;;;;;6.80;4.15;;;14.30;99.90;;;14.68;85.82;102530.78;4898751;29;20426;-70
2022/10/18 05:33:53;;;;;;;4.60;3.75;;;14.30;99.90;;;14.54;85.82;102530.69;4899770;29;20490;-72
2022/10/18 05:36:21;;;;;;;5.38;3.60;;;14.30;99.90;;;14.53;85.51;102533.38;4899848;29;20538;-70
2022/10/18 05:38:51;;;;;;;5.05;3.38;;;14.20;99.90;;;14.41;85.40;102524.44;4899661;29;20067;-70
2022/10/18 05:41:21;;;;;;;6.95;4.40;;;14.10;99.90;;;14.36;85.63;102528.81;4899722;29;20044;-72
2022/10/18 05:43:49;;;;;;;6.20;4.40;;;14.00;99.90;;;14.36;85.63;102542.13;4899705;29;20077;-71
2022/10/18 05:46:17;;;;;;;5.85;3.97;;;14.10;99.90;;;14.37;85.80;102543.91;4899714;29;20045;-71
2022/10/18 05:48:50;;;;;;;10.23;4.20;;;14.00;99.90;;;14.27;85.91;102514.53;4899623;29;20041;-69
2022/10/18 05:51:19;;;;;;;10.13;5.32;;;14.10;99.90;;;14.48;86.26;102541.31;4898210;29;20139;-75
2022/10/18 05:53:47;;;;;;;16.30;6.57;;;14.10;99.90;;;14.12;86.52;102490.47;4899499;29;20063;-73
2022/10/18 05:56:16;;;;;;;10.70;5.95;;;14.10;99.90;;;14.39;87.13;102542.16;4899556;29;20080;-73
2022/10/18 05:58:51;;;;;;;11.55;6.10;;;14.10;99.90;;;14.42;87.00;102551.91;4899234;29;20041;-73
2022/10/18 06:01:20;;;;;;;9.60;6.03;;;14.10;99.90;;;14.41;86.93;102545.72;4899623;29;20115;-74
2022/10/18 06:03:49;;;;;;;11.85;5.85;;;14.10;99.90;;;13.76;86.84;102443.22;4899192;29;20048;-73
2022/10/18 06:06:17;;;;;;;9.10;6.10;;;14.10;99.90;;;13.86;86.56;102473.44;4899224;29;20513;-74
2022/10/18 06:08:49;;;;;;;10.52;6.60;;;14.00;99.90;;;14.48;86.94;102561.75;4899128;29;20048;-73
2022/10/18 06:11:19;;;;;;;8.30;5.25;;;14.10;99.90;;;14.40;86.35;102572.34;4899048;29;20067;-74
2022/10/18 06:13:52;;;;;;;6.93;5.25;;;14.10;99.90;;;14.39;86.33;102586.53;4899128;29;20048;-74
2022/10/18 06:16:23;;;;;;;7.88;5.95;;;14.00;99.90;;;13.76;87.09;102469.81;4899031;29;20048;-73
2022/10/18 06:18:58;;;;;;;8.82;6.57;;;14.10;99.90;;;14.50;87.51;102570.66;4899020;29;20072;-74
2022/10/18 06:21:27;;;;;;;7.13;5.85;;;14.10;99.90;;;14.51;87.47;102565.31;4899004;29;20045;-74
2022/10/18 06:23:58;;;;;;;7.78;6.50;;;14.10;99.90;;;14.44;86.93;102587.44;4898682;29;20044;-74
2022/10/18 06:26:28;;;;;;;6.88;6.18;;;14.10;99.90;;;14.39;86.49;102599.84;4898852;29;20055;-73
2022/10/18 06:28:57;;;;;;;8.93;6.30;;;14.10;99.90;;;14.40;86.82;102596.31;4898965;29;20049;-73
2022/10/18 06:31:26;;;;;;;6.90;5.73;;;14.00;99.90;;;14.15;87.23;102543.72;4899265;29;20127;-73
2022/10/18 06:33:56;;;;;;;8.18;6.03;;;14.00;99.90;;;14.29;87.08;102580.25;4897710;29;20500;-73
2022/10/18 06:36:25;;;;;;;9.57;6.32;;;14.10;99.90;;;14.35;87.02;102595.38;4898974;29;20063;-73
2022/10/18 06:38:55;;;;;;;8.07;6.10;;;14.00;99.90;;;14.36;87.11;102599.81;4897166;29;20507;-73
2022/10/18 06:41:24;;;;;;;7.70;5.30;;;14.00;99.90;;;14.28;86.73;102607.75;4898608;29;20476;-73
2022/10/18 06:43:56;;;;;;;13.77;4.88;;;14.00;99.90;;;14.28;86.71;102607.75;4898844;29;20491;-73
2022/10/18 06:46:26;;;;;;;5.20;4.20;;;13.90;99.90;;;14.38;86.79;102604.25;4897352;29;20131;-73
2022/10/18 06:48:55;;;;;;;4.90;4.38;;;14.00;99.90;;;14.44;86.97;102599.00;4898457;29;20064;-76
2022/10/18 06:51:23;;;;;;;4.25;3.90;;;14.10;99.90;;;14.35;86.88;102574.97;4898566;29;20499;-73
2022/10/18 06:53:51;;;;;;;4.47;4.07;;;14.20;99.90;;;14.79;86.90;102617.88;4898491;29;20056;-74
2022/10/18 06:56:40;;;;;;;5.40;4.40;;;14.30;99.90;;;15.13;87.20;102621.63;4898398;29;20051;-74
2022/10/18 06:59:08;;;;;;;7.53;5.30;;;14.70;99.90;;;15.43;86.97;102623.59;4898437;29;20048;-75
2022/10/18 07:01:38;;;;;;;6.85;5.50;;;15.00;99.90;;;15.69;86.28;102621.88;4898167;29;20475;-76
2022/10/18 07:04:06;;;;;;;8.00;5.00;;;15.30;99.90;;;16.02;85.02;102624.63;4898186;29;20084;-74
2022/10/18 07:06:34;;;;;;;6.07;4.20;;;15.60;99.90;;;16.19;83.41;102631.75;4898654;29;20307;-75
2022/10/18 07:09:03;;;;;;;7.43;3.63;;;15.80;99.90;;;16.47;81.29;102631.78;4897017;29;20052;-76
2022/10/18 07:11:32;;;;;;;5.72;3.17;;;16.10;99.90;;;16.56;79.63;102637.13;4896911;29;20096;-78
2022/10/18 07:14:03;;;;;;;6.78;3.85;;;16.30;99.90;;;16.98;78.35;102637.97;4897974;29;20048;-75
2022/10/18 07:16:33;;;;;;;5.82;3.45;;;16.60;99.90;;;16.63;77.43;102527.56;4898010;29;20075;-72
2022/10/18 07:19:03;;;;;;;3.50;3.22;;;16.90;99.90;;;17.34;75.66;102647.69;4898214;29;20044;-73
2022/10/18 07:21:32;;;;;;;3.80;3.50;;;17.20;99.90;;;17.70;75.02;102652.88;4898238;29;20128;-72
2022/10/18 07:24:00;;;;;;;3.95;3.65;;;17.30;99.90;;;18.00;74.06;102652.69;4897884;29;20475;-72
2022/10/18 07:26:31;;;;;;;4.53;4.13;;;17.70;99.90;;;18.55;73.10;102669.28;4897540;29;20505;-73
2022/10/18 07:29:04;;;;;;;3.83;3.50;;;18.20;99.90;;;18.66;71.33;102623.66;4896407;29;20076;-76
2022/10/18 07:31:33;;;;;;;5.57;3.60;;;18.60;99.90;;;19.40;70.41;102676.50;4897649;29;20058;-73
2022/10/18 07:34:04;;;;;;;4.30;3.90;;;19.10;99.90;;;19.64;69.66;102655.63;4897897;29;20049;-73
2022/10/18 07:36:33;;;;;;;4.63;3.90;;;19.50;99.90;;;20.03;68.20;102681.03;4897894;29;20096;-73
2022/10/18 07:39:01;;;;;;;6.05;3.63;;;19.80;99.90;;;20.36;66.93;102683.22;4897687;29;20051;-73
2022/10/18 07:41:32;;;;;;;4.20;3.80;;;20.10;99.90;;;20.20;65.40;102691.56;4897668;29;20483;-74
2022/10/18 07:44:00;;;;;;;;;;;20.00;99.90;;;20.38;66.10;102689.47;4896675;29;20062;-73
2022/10/18 07:46:29;;;;;;;4.50;3.50;;;20.10;99.90;;;20.87;64.91;102689.53;4897648;29;20262;-77
2022/10/18 07:48:58;;;;;;;4.15;3.75;;;20.50;99.90;;;21.26;64.08;102701.41;4897638;29;20091;-74
2022/10/18 07:51:29;;;;;;;4.22;3.80;;;20.80;99.90;;;21.28;64.21;102716.63;4897788;29;20052;-74
2022/10/18 07:53:58;;;;;;;4.22;3.22;;;21.00;99.90;;;21.71;63.93;102726.53;4897499;29;20135;-75
2022/10/18 07:56:26;;;;;;;6.18;3.60;;;21.40;99.90;;;21.94;63.10;102722.47;4896423;29;20156;-74
2022/10/18 07:58:56;;;;;;;4.47;4.07;;;21.60;99.90;;;22.20;61.95;102727.31;4897773;29;20051;-74
2022/10/18 08:01:25;;;;;;;4.93;3.60;;;21.80;99.90;;;22.56;61.75;102726.41;4897504;29;20056;-75
2022/10/18 08:03:54;;;;;;;5.53;3.40;;;22.20;99.90;;;22.72;61.18;102718.88;4897529;29;20056;-73
2022/10/18 08:06:23;;;;;;;5.20;3.33;;;22.40;99.90;;;22.71;61.06;102726.06;4897429;29;20382;-74
2022/10/18 08:08:53;;;;;;;4.85;3.40;;;22.40;99.90;;;22.58;60.93;102724.63;4897325;29;20522;-72
2022/10/18 08:11:24;;;;;;;4.07;3.47;;;22.30;99.90;;;22.45;61.75;102723.97;4897680;29;20045;-73
2022/10/18 08:13:53;;;;;;;3.67;3.33;;;22.20;99.90;;;22.68;61.84;102730.66;4897410;29;20308;-70
2022/10/18 08:16:24;;;;;;;3.58;3.22;;;22.30;99.90;;;22.68;61.32;102741.47;4897121;29;20055;-70
2022/10/18 08:18:53;;;;;;;4.68;3.45;;;22.30;99.90;;;23.16;61.42;102724.91;4897410;29;20406;-72
2022/10/18 08:21:22;;;;;;;5.03;3.63;;;22.60;99.90;;;23.40;60.59;102733.28;4897077;29;20495;-71
2022/10/18 08:23:50;;;;;;;7.03;3.42;;;23.00;99.90;;;23.56;60.57;102740.00;4896197;29;20048;-72
2022/10/18 08:26:22;;;;;;;5.50;3.60;;;23.20;99.90;;;23.67;60.39;102743.31;4897324;29;20045;-71
2022/10/18 08:28:51;;;;;;;5.80;3.25;;;23.30;99.90;;;23.66;59.58;102747.81;4897163;29;20131;-72
2022/10/18 08:31:36;;;;;;;7.18;3.28;;;23.30;99.90;;;23.67;59.92;102754.13;4896106;29;20435;-71
2022/10/18 08:34:05;;;;;;;6.35;3.60;;;23.30;99.90;;;23.78;60.56;102752.00;4896936;29;20036;-71
2022/10/18 08:36:33;;;;;;;6.85;3.88;;;23.40;99.90;;;23.74;59.75;102747.59;4897144;29;20052;-71
2022/10/18 08:39:02;;;;;;;9.15;3.75;;;23.40;99.90;;;23.11;59.51;102629.59;4897137;29;20045;-72
2022/10/18 08:42:08;;;;;;;7.30;4.05;;;23.40;99.90;;;23.80;59.77;102715.00;4897812;29;20044;-71
2022/10/18 08:44:44;;;;;;;6.90;4.03;;;23.60;99.90;;;24.21;60.02;102743.50;4899645;29;20629;-71
2022/10/18 08:47:17;;;;;;;9.40;4.43;;;23.90;99.90;;;24.50;58.65;102748.91;4899140;29;20140;-71
2022/10/18 08:49:49;;;;;;;8.57;4.13;;;24.20;99.90;;;24.67;58.63;102741.09;4900706;29;20103;-71
2022/10/18 08:52:32;;;;;;;7.22;3.88;;;24.40;99.90;;;24.82;58.07;102722.56;4900374;29;20061;-71
2022/10/18 08:55:04;;;;;;;6.47;3.80;;;24.70;99.90;;;24.95;58.30;102751.00;4899323;29;20064;-71
2022/10/18 08:57:34;;;;;;;6.35;3.63;;;24.70;99.90;;;24.64;57.76;102752.91;4900500;29;20123;-72
2022/10/18 09:00:07;;;;;;;8.00;3.80;;;24.40;99.90;;;24.32;59.67;102717.00;4900134;29;20460;-71
2022/10/18 09:02:50;;;;;;;6.85;3.85;;;24.20;99.90;;;24.52;58.05;102741.63;4900308;29;20045;-72
2022/10/18 09:05:27;;;;;;;7.45;3.65;;;24.20;99.90;;;24.81;58.11;102745.19;4900257;29;20409;-71
2022/10/18 09:08:47;;;;;;;8.10;3.75;;;24.40;99.90;;;25.31;56.72;102735.28;4900368;29;20061;-71
2022/10/18 09:11:31;;;;;;;6.40;3.42;;;24.90;99.90;;;25.60;55.23;102746.00;4866550;29;20151;-71
2022/10/18 09:14:26;;;;;;;9.27;4.43;;;25.30;99.90;;;25.72;55.52;102750.06;4900060;29;20131;-71
2022/10/18 09:17:05;;;;;;;7.70;3.83;;;25.50;99.90;;;25.98;55.26;102758.09;4899960;29;20083;-70
2022/10/18 09:19:53;;;;;;;12.05;4.18;;;25.70;99.90;;;26.21;53.64;102760.84;4898855;29;20048;-71
2022/10/18 09:22:35;;;;;;;10.02;4.07;;;26.00;99.90;;;26.02;53.10;102756.13;4899880;29;20059;-71
2022/10/18 09:25:11;;;;;;;9.73;3.95;;;25.90;99.90;;;25.85;53.04;102763.13;4899897;29;20143;-71
2022/10/18 09:27:52;;;;;;;10.30;4.28;;;25.70;99.90;;;25.81;52.36;102747.91;4899906;29;20045;-71
2022/10/18 09:30:42;;;;;;;10.18;3.60;;;25.70;99.90;;;26.26;50.98;102766.97;4899761;29;20093;-72
2022/10/18 09:33:29;;;;;;;8.82;3.70;;;25.90;99.90;;;26.09;50.59;102774.00;4899817;29;20069;-65
2022/10/18 09:36:01;;;;;;;13.10;3.20;;;25.80;99.90;;;25.99;49.90;102772.56;4899808;29;20060;-66
2022/10/18 09:38:33;;;;;;;9.10;3.10;;;25.60;99.90;;;25.73;49.27;102779.84;4899676;29;20100;-67
2022/10/18 09:41:08;;;;;;;8.48;2.88;;;25.40;99.90;;;25.60;48.44;102781.25;4899520;29;20048;-68
2022/10/18 09:43:47;;;;;;;9.43;3.60;;;25.30;99.90;;;25.98;48.62;102787.94;4900121;29;20052;-68
2022/10/18 09:46:20;;;;;;;10.63;3.20;;;25.50;99.90;;;25.98;48.32;102746.38;4899540;29;20053;-67
2022/10/18 09:48:54;;;;;;;11.98;3.90;;;25.90;99.90;;;26.00;48.86;102790.63;4899390;29;20375;-68
2022/10/18 09:51:27;;;;;;;10.10;3.35;;;25.60;99.90;;;26.12;48.02;102787.44;4899536;29;20056;-68
2022/10/18 09:54:09;;;;;;;9.05;3.90;;;25.70;99.90;;;26.29;48.17;102793.09;4899287;29;20099;-68
2022/10/18 09:56:41;;;;;;;9.43;3.70;;;25.90;99.90;;;25.85;47.51;102787.53;4899801;29;20059;-68
2022/10/18 09:59:30;;;;;;;9.70;3.63;;;25.70;99.90;;;25.71;48.33;102802.53;4898305;29;20053;-68
2022/10/18 10:02:00;;;;;;;10.48;3.78;;;25.40;99.90;;;25.48;48.14;102802.47;4899571;29;20490;-68
2022/10/18 10:04:28;;;;;;;11.15;3.40;;;25.10;99.90;;;25.38;48.80;102799.16;4898160;29;20052;-68
2022/10/18 10:06:59;;;;;;;7.07;3.40;;;25.20;99.90;;;25.57;49.48;102803.03;4898962;29;20056;-68
2022/10/18 10:09:30;;;;;;;11.40;3.53;;;25.30;99.90;;;25.71;49.30;102803.41;4897790;29;20529;-68
2022/10/18 10:11:59;;;;;;;12.25;3.17;;;25.40;99.90;;;25.89;48.50;102807.28;4897725;29;20513;-68
2022/10/18 10:14:29;;;;;;;10.50;3.35;;;25.60;99.90;;;25.55;47.16;102810.31;4899003;29;20053;-67
2022/10/18 10:17:02;;;;;;;9.75;2.95;;;25.40;99.90;;;25.33;46.21;102801.16;4899045;29;20044;-68
2022/10/18 10:19:33;;;;;;;10.02;3.45;;;25.20;99.90;;;25.06;46.08;102807.53;4899191;29;20072;-68
2022/10/18 10:22:06;;;;;;;9.43;3.53;;;24.80;99.90;;;25.27;47.32;102809.50;4898771;29;20044;-67
2022/10/18 10:24:45;;;;;;;8.90;3.63;;;25.00;99.90;;;25.45;45.81;102806.19;4899019;29;20087;-67
2022/10/18 10:27:20;;;;;;;6.18;2.67;;;25.10;99.90;;;25.68;46.18;102798.13;4897670;29;20058;-67
2022/10/18 10:29:58;;;;;;;12.60;3.33;;;25.50;99.90;;;25.76;44.15;102820.38;4897614;29;20131;-69
2022/10/18 10:32:48;;;;;;;8.05;3.17;;;25.60;99.90;;;25.60;44.84;102808.34;4899054;29;20052;-75
2022/10/18 10:35:23;;;;;;;10.60;3.40;;;25.40;99.90;;;25.61;45.94;102810.09;4898731;29;20513;-69